Language: 


Des rapports , des résumés tant et plus, au choix de chacun....


Données Historiques de Météogheer
Journalier Rapport pour Décembre 14, 2017 Unitée:  Métrique    Impériale   Les deux
Suivant Jour »
Journalier Hebdomadaire Mensuel Annuel Sur mesure
  Max: Min: Moyenne:
Température: 5.7 °C 0.0 °C 4 °C
Point de rosée: 6.0 °C 0.0 °C 3.1 °C
Humidité: 98% 0% 90%
Vent: 52.6km/h 0.0km/h 13.8km/h
Rafales: 55.8km/h - -
Vent- - WSW
Pression: 995.1 hPa 0.0 hPa -
Pluie: 7.6 mm    
Historical Graphs
 
 
Données tabulaires pour Décembre 14, 2017
Heure Température Point de rosée Pression Vent Vent Rafales Humidité Pluie Taux (Horaire) Conditions
00:06 5.1 °C 4.0 °C 989.1 hPa WSW 21.9 km/h 27.0 km/h 94% 0.0 mm
00:11 5.3 °C 5.0 °C 989.1 hPa WSW 52.6 km/h 55.8 km/h 95% 0.0 mm
00:16 5.4 °C 5.0 °C 989.1 hPa WSW 38.1 km/h 55.8 km/h 97% 1.0 mm
00:21 5.4 °C 5.0 °C 989.1 hPa WSW 24.8 km/h 43.9 km/h 97% 1.0 mm
00:26 5.3 °C 6.0 °C 989.1 hPa WSW 21.2 km/h 37.0 km/h 98% 1.3 mm
00:31 5.3 °C 6.0 °C 989.1 hPa WSW 20.1 km/h 32.3 km/h 98% 1.3 mm
00:36 5.2 °C 5.0 °C 989.1 hPa WSW 32.3 km/h 33.5 km/h 98% 1.3 mm
00:41 5.2 °C 5.0 °C 989.1 hPa SW 23.3 km/h 38.1 km/h 97% 1.3 mm
00:46 5.1 °C 5.0 °C 989.1 hPa SW 24.8 km/h 38.1 km/h 97% 1.3 mm
00:51 5.1 °C 5.0 °C 989.1 hPa SW 22.7 km/h 30.2 km/h 97% 1.5 mm
00:56 5.1 °C 5.0 °C 988.0 hPa WSW 24.5 km/h 28.0 km/h 97% 1.5 mm
01:01 5.2 °C 5.0 °C 988.0 hPa WSW 16.3 km/h 33.8 km/h 97% 1.5 mm
01:06 5.2 °C 5.0 °C 988.0 hPa WSW 20.6 km/h 33.8 km/h 97% 1.5 mm
01:11 5.3 °C 5.0 °C 989.1 hPa WSW 28.0 km/h 40.4 km/h 97% 1.3 mm
01:16 5.4 °C 6.0 °C 989.1 hPa West 28.0 km/h 40.4 km/h 98% 0.5 mm
01:21 5.5 °C 6.0 °C 989.1 hPa Calm   31.4 km/h 98% 0.5 mm
01:26 5.4 °C 5.0 °C 989.1 hPa West 12.2 km/h 27.0 km/h 97% 0.3 mm
01:32 5.4 °C 6.0 °C 989.1 hPa West 9.7 km/h 19.8 km/h 98% 0.3 mm
01:37 5.4 °C 5.0 °C 989.1 hPa West 17.2 km/h 17.2 km/h 97% 0.3 mm
01:42 5.5 °C 6.0 °C 990.1 hPa NNW 22.4 km/h 40.4 km/h 96% 0.3 mm
01:47 5.4 °C 4.0 °C 990.1 hPa West 20.6 km/h 40.4 km/h 89% 0.3 mm
01:52 5.4 °C 3.0 °C 990.1 hPa WSW 24.8 km/h 41.0 km/h 86% 0.0 mm
01:57 5.3 °C 3.0 °C 991.1 hPa West 20.9 km/h 41.0 km/h 85% 0.0 mm
02:02 5.3 °C 3.0 °C 991.1 hPa West 21.6 km/h 32.8 km/h 84% 0.0 mm
02:07 5.5 °C 3.0 °C 991.1 hPa WNW 17.7 km/h 37.0 km/h 82% 0.0 mm
02:12 5.5 °C 3.0 °C 991.1 hPa WNW 22.7 km/h 37.0 km/h 82% 0.0 mm
02:17 5.5 °C 3.0 °C 991.1 hPa West 36.7 km/h 40.4 km/h 82% 0.0 mm
02:22 5.5 °C 3.0 °C 991.1 hPa West 25.9 km/h 51.2 km/h 79% 0.0 mm
02:27 5.5 °C 2.0 °C 991.1 hPa WSW 43.9 km/h 51.2 km/h 78% 0.0 mm
02:32 5.5 °C 2.0 °C 991.1 hPa WNW 44.6 km/h 44.6 km/h 78% 0.0 mm
02:37 5.7 °C 2.0 °C 991.1 hPa South 21.2 km/h 44.6 km/h 75% 0.0 mm
02:42 5.7 °C 2.0 °C 991.1 hPa West 31.7 km/h 44.6 km/h 75% 0.0 mm
02:47 5.7 °C 2.0 °C 991.1 hPa West 34.6 km/h 47.1 km/h 75% 0.0 mm
02:52 5.6 °C 2.0 °C 991.1 hPa West 22.7 km/h 47.1 km/h 75% 0.0 mm
02:57 5.6 °C 2.0 °C 992.1 hPa WSW 20.9 km/h 43.6 km/h 75% 0.0 mm
03:03 0.0 °C 2.0 °C 992.1 hPa West 24.8 km/h 43.6 km/h 0% 0.0 mm
03:08 0.0 °C 2.0 °C 992.1 hPa West 24.5 km/h 43.1 km/h 0% 0.0 mm
03:13 0.0 °C 2.0 °C 993.1 hPa West 26.7 km/h 43.6 km/h 0% 0.0 mm
03:18 5.2 °C 1.0 °C 993.1 hPa WSW 24.5 km/h 43.9 km/h 72% 0.0 mm
03:23 5.1 °C 1.0 °C 993.1 hPa West 25.9 km/h 43.9 km/h 72% 0.0 mm
03:28 5.0 °C 1.0 °C 993.1 hPa West 24.5 km/h 38.9 km/h 73% 0.0 mm
03:33 5.0 °C 1.0 °C 993.1 hPa West 23.0 km/h 38.9 km/h 72% 0.0 mm
03:38 4.8 °C 0.0 °C 993.1 hPa West 13.7 km/h 37.8 km/h 73% 0.0 mm
03:43 4.8 °C 0.0 °C 993.1 hPa West 28.8 km/h 41.4 km/h 73% 0.0 mm
03:48 4.8 °C 0.0 °C 993.1 hPa West 24.5 km/h 41.4 km/h 73% 0.0 mm
03:53 4.7 °C 1.0 °C 993.1 hPa WSW 28.0 km/h 38.1 km/h 74% 0.0 mm
03:58 4.6 °C 1.0 °C 993.1 hPa West 25.3 km/h 37.8 km/h 74% 0.0 mm
04:03 4.7 °C 0.0 °C 993.1 hPa West 20.6 km/h 38.1 km/h 73% 0.0 mm
04:08 4.6 °C 1.0 °C 993.1 hPa WSW 24.5 km/h 38.1 km/h 74% 0.0 mm
04:14 4.4 °C 1.0 °C 993.1 hPa West 16.9 km/h 35.2 km/h 76% 0.0 mm
04:20 4.4 °C 1.0 °C 993.1 hPa WSW 14.8 km/h 29.1 km/h 76% 0.0 mm
04:21 4.4 °C 1.0 °C 993.1 hPa WSW 17.2 km/h 29.1 km/h 76% 0.0 mm
04:22 4.4 °C 1.0 °C 993.1 hPa West 17.7 km/h 29.1 km/h 76% 0.0 mm
04:23 4.4 °C 1.0 °C 993.1 hPa WSW 20.6 km/h 30.9 km/h 76% 0.0 mm
04:26 4.5 °C 1.0 °C 994.1 hPa WSW 20.9 km/h 30.9 km/h 76% 0.0 mm
04:28 4.5 °C 1.0 °C 994.1 hPa West 17.2 km/h 30.9 km/h 76% 0.0 mm
04:31 4.6 °C 1.0 °C 994.1 hPa SSW 13.7 km/h 30.9 km/h 77% 0.0 mm
04:36 4.6 °C 1.0 °C 994.1 hPa West 14.0 km/h 31.7 km/h 77% 0.0 mm
04:41 4.6 °C 1.0 °C 994.1 hPa West 15.8 km/h 31.7 km/h 77% 0.0 mm
04:46 4.5 °C 1.0 °C 994.1 hPa West 9.0 km/h 28.5 km/h 77% 0.0 mm
04:51 4.5 °C 1.0 °C 994.1 hPa West 16.9 km/h 25.3 km/h 77% 0.0 mm
04:52 4.5 °C 1.0 °C 994.1 hPa WSW 13.7 km/h 23.8 km/h 77% 0.0 mm
04:56 4.5 °C 1.0 °C 994.1 hPa WSW 20.1 km/h 24.5 km/h 78% 0.0 mm
05:00 4.6 °C 1.0 °C 994.1 hPa West 19.1 km/h 27.4 km/h 78% 0.0 mm
05:05 4.6 °C 1.0 °C 994.1 hPa West 16.6 km/h 27.4 km/h 78% 0.0 mm
05:10 4.5 °C 1.0 °C 994.1 hPa WSW 21.2 km/h 27.4 km/h 78% 0.0 mm
05:15 4.4 °C 1.0 °C 994.1 hPa West 19.1 km/h 27.4 km/h 78% 0.0 mm
05:20 4.3 °C 1.0 °C 994.1 hPa West 12.2 km/h 19.8 km/h 79% 0.0 mm
05:26 4.2 °C 1.0 °C 994.1 hPa West 20.9 km/h 20.9 km/h 79% 0.0 mm
05:31 4.3 °C 1.0 °C 994.1 hPa WSW 15.8 km/h 25.6 km/h 80% 0.0 mm
05:36 4.6 °C 2.0 °C 994.1 hPa West 11.1 km/h 25.6 km/h 80% 0.0 mm
05:41 4.7 °C 2.0 °C 994.1 hPa West 13.0 km/h 22.7 km/h 81% 0.0 mm
05:44 4.7 °C 2.0 °C 994.1 hPa WSW 14.0 km/h 22.7 km/h 81% 0.0 mm
05:49 4.8 °C 2.0 °C 994.1 hPa WSW 14.0 km/h 23.0 km/h 82% 0.0 mm
05:54 4.9 °C 2.0 °C 994.1 hPa WSW 14.0 km/h 27.4 km/h 82% 0.0 mm
05:59 5.1 °C 2.0 °C 994.1 hPa WSW 16.9 km/h 27.4 km/h 81% 0.0 mm
06:04 5.1 °C 2.0 °C 994.1 hPa West 14.0 km/h 28.0 km/h 81% 0.0 mm
06:08 5.1 °C 2.0 °C 994.1 hPa West 24.8 km/h 28.5 km/h 81% 0.0 mm
06:09 5.4 °C 3.0 °C 994.1 hPa West 22.7 km/h 28.5 km/h 80% 0.0 mm
06:10 5.4 °C 3.0 °C 994.1 hPa WSW 19.5 km/h 28.5 km/h 80% 0.0 mm
06:14 5.5 °C 3.0 °C 994.1 hPa West 16.6 km/h 28.5 km/h 79% 0.0 mm
06:19 5.5 °C 3.0 °C 994.1 hPa West 24.8 km/h 24.8 km/h 79% 0.0 mm
06:20 5.5 °C 3.0 °C 994.1 hPa West 22.7 km/h 24.8 km/h 79% 0.0 mm
06:24 5.6 °C 3.0 °C 994.1 hPa West 17.7 km/h 24.8 km/h 79% 0.0 mm
06:25 5.6 °C 3.0 °C 994.1 hPa WSW 23.8 km/h 24.8 km/h 79% 0.0 mm
06:30 5.5 °C 3.0 °C 994.1 hPa West 12.2 km/h 23.8 km/h 80% 0.0 mm
06:35 5.5 °C 3.0 °C 994.1 hPa West 15.4 km/h 20.1 km/h 80% 0.0 mm
06:40 5.5 °C 3.0 °C 994.1 hPa West 11.9 km/h 16.9 km/h 80% 0.0 mm
06:45 5.2 °C 3.0 °C 994.1 hPa WSW 9.7 km/h 16.9 km/h 82% 0.0 mm
06:50 5.3 °C 3.0 °C 994.1 hPa WSW 9.7 km/h 16.9 km/h 82% 0.0 mm
06:55 5.3 °C 3.0 °C 994.1 hPa West 10.1 km/h 13.7 km/h 82% 0.0 mm
07:00 5.2 °C 3.0 °C 993.1 hPa WSW 7.9 km/h 12.2 km/h 82% 0.0 mm
07:05 5.2 °C 3.0 °C 993.1 hPa WSW 8.7 km/h 11.6 km/h 82% 0.0 mm
07:10 5.0 °C 3.0 °C 993.1 hPa WSW 7.9 km/h 11.6 km/h 83% 0.0 mm
07:15 4.8 °C 2.0 °C 994.1 hPa WSW 10.1 km/h 10.1 km/h 83% 0.0 mm
07:21 4.6 °C 2.0 °C 994.1 hPa WSW 6.9 km/h 10.1 km/h 84% 0.0 mm
07:26 4.6 °C 2.0 °C 993.1 hPa West 9.0 km/h 11.6 km/h 84% 0.0 mm
07:31 4.7 °C 3.0 °C 993.1 hPa WSW 9.7 km/h 11.6 km/h 85% 0.0 mm
07:36 4.8 °C 3.0 °C 993.1 hPa WSW 9.7 km/h 11.6 km/h 85% 0.0 mm
07:41 5.0 °C 3.0 °C 994.1 hPa WSW 16.6 km/h 23.0 km/h 86% 0.0 mm
07:46 5.3 °C 3.0 °C 994.1 hPa WSW 17.7 km/h 25.9 km/h 85% 0.0 mm
07:56 5.6 °C 3.0 °C 994.1 hPa WSW 12.6 km/h 20.9 km/h 83% 0.0 mm
08:01 5.7 °C 3.0 °C 994.1 hPa West 16.9 km/h 18.3 km/h 83% 0.0 mm
08:06 5.7 °C 3.0 °C 994.1 hPa WSW 11.9 km/h 16.9 km/h 83% 0.0 mm
08:11 5.7 °C 3.0 °C 994.1 hPa West 9.0 km/h 16.9 km/h 83% 0.0 mm
08:13 5.7 °C 3.0 °C 994.1 hPa WSW 13.0 km/h 19.5 km/h 83% 0.0 mm
08:16 5.5 °C 3.0 °C 994.1 hPa West 16.9 km/h 26.7 km/h 82% 0.0 mm
08:17 5.5 °C 3.0 °C 994.1 hPa West 16.9 km/h 26.7 km/h 82% 0.0 mm
08:21 5.7 °C 3.0 °C 994.1 hPa WSW 13.7 km/h 26.7 km/h 82% 0.0 mm
08:26 5.6 °C 3.0 °C 994.1 hPa SW 9.0 km/h 16.6 km/h 82% 0.0 mm
08:31 5.6 °C 3.0 °C 994.1 hPa WSW 12.2 km/h 14.8 km/h 82% 0.0 mm
08:36 5.6 °C 3.0 °C 994.1 hPa WSW 28.0 km/h 28.0 km/h 82% 0.0 mm
08:42 5.6 °C 3.0 °C 994.1 hPa West 6.1 km/h 28.0 km/h 82% 0.0 mm
08:47 5.2 °C 3.0 °C 994.1 hPa WSW 17.2 km/h 32.8 km/h 86% 0.0 mm
08:52 5.1 °C 3.0 °C 994.1 hPa WSW 10.1 km/h 32.8 km/h 86% 0.3 mm
08:55 5.0 °C 3.0 °C 994.1 hPa WSW 16.3 km/h 32.8 km/h 86% 0.3 mm
09:01 4.9 °C 3.0 °C 994.1 hPa WSW 13.0 km/h 16.3 km/h 87% 0.3 mm
09:02 4.9 °C 3.0 °C 994.1 hPa WSW 13.0 km/h 16.3 km/h 87% 0.3 mm
09:07 4.9 °C 3.0 °C 994.1 hPa WSW 13.7 km/h 16.6 km/h 87% 0.3 mm
09:12 0.0 °C 3.0 °C 994.1 hPa SW 17.7 km/h 17.7 km/h 0% 0.3 mm
09:17 4.7 °C 3.0 °C 994.1 hPa SW 15.8 km/h 24.5 km/h 91% 0.3 mm
09:22 4.7 °C 3.0 °C 994.1 hPa SSW 12.2 km/h 24.5 km/h 91% 0.3 mm
09:27 4.8 °C 3.0 °C 994.1 hPa SW 11.6 km/h 20.6 km/h 92% 0.3 mm
09:32 4.7 °C 3.0 °C 994.1 hPa SSW 12.2 km/h 20.6 km/h 92% 0.3 mm
09:37 4.7 °C 3.0 °C 994.1 hPa SW 15.4 km/h 17.7 km/h 92% 0.3 mm
09:39 4.7 °C 3.0 °C 994.1 hPa WSW 10.5 km/h 17.7 km/h 92% 0.3 mm
09:42 4.7 °C 3.0 °C 994.1 hPa SSW 17.7 km/h 17.7 km/h 92% 0.3 mm
09:47 4.7 °C 3.0 °C 994.1 hPa SSW 28.0 km/h 28.0 km/h 92% 0.0 mm
09:48 4.7 °C 3.0 °C 994.1 hPa SSW 20.1 km/h 28.0 km/h 92% 0.0 mm
09:52 4.7 °C 3.0 °C 994.1 hPa WSW 24.8 km/h 28.0 km/h 92% 0.0 mm
09:57 4.6 °C 4.0 °C 994.1 hPa WSW 12.6 km/h 24.8 km/h 93% 0.0 mm
10:02 4.5 °C 4.0 °C 994.1 hPa SW 13.0 km/h 28.0 km/h 93% 0.0 mm
10:07 4.5 °C 4.0 °C 994.1 hPa SW 10.5 km/h 28.0 km/h 93% 0.0 mm
10:12 4.3 °C 3.0 °C 994.1 hPa WSW 11.9 km/h 24.5 km/h 93% 0.0 mm
10:17 4.2 °C 3.0 °C 994.1 hPa WSW 13.0 km/h 20.9 km/h 93% 0.0 mm
10:19 4.2 °C 3.0 °C 994.1 hPa SSW 12.6 km/h 20.9 km/h 93% 0.0 mm
10:22 4.2 °C 3.0 °C 994.1 hPa SSW 12.2 km/h 18.0 km/h 93% 0.0 mm
10:27 4.1 °C 3.0 °C 994.1 hPa WSW 11.9 km/h 15.4 km/h 93% 0.0 mm
10:32 4.1 °C 3.0 °C 994.1 hPa SW 10.8 km/h 17.2 km/h 93% 0.0 mm
10:37 4.1 °C 3.0 °C 994.1 hPa SSW 10.5 km/h 17.2 km/h 93% 0.0 mm
10:42 4.1 °C 3.0 °C 995.1 hPa WSW 10.5 km/h 16.9 km/h 93% 0.0 mm
10:47 4.1 °C 3.0 °C 995.1 hPa SW 11.6 km/h 16.9 km/h 95% 0.0 mm
10:52 4.1 °C 3.0 °C 995.1 hPa SW 14.0 km/h 19.5 km/h 95% 0.0 mm
10:57 4.1 °C 3.0 °C 994.1 hPa WSW 12.6 km/h 19.5 km/h 95% 0.0 mm
10:59 4.3 °C 4.0 °C 994.1 hPa SSW 13.7 km/h 19.5 km/h 96% 0.0 mm
11:02 4.3 °C 4.0 °C 994.1 hPa WSW 20.1 km/h 22.4 km/h 96% 0.0 mm
11:07 4.3 °C 4.0 °C 994.1 hPa WSW 9.3 km/h 22.4 km/h 96% 0.0 mm
11:12 4.3 °C 4.0 °C 994.1 hPa SW 13.0 km/h 19.5 km/h 96% 0.0 mm
11:17 4.5 °C 4.0 °C 994.1 hPa SW 11.9 km/h 18.0 km/h 96% 0.0 mm
11:22 4.4 °C 4.0 °C 994.1 hPa SSW 14.8 km/h 16.3 km/h 96% 0.0 mm
11:24 4.4 °C 4.0 °C 994.1 hPa SSW 10.5 km/h 15.8 km/h 96% 0.0 mm
11:29 4.4 °C 4.0 °C 994.1 hPa WSW 14.0 km/h 18.3 km/h 96% 0.0 mm
11:34 4.4 °C 4.0 °C 994.1 hPa WSW 19.8 km/h 19.8 km/h 96% 0.0 mm
11:38 4.4 °C 4.0 °C 994.1 hPa SSW 14.0 km/h 20.9 km/h 96% 0.0 mm
11:40 4.4 °C 4.0 °C 994.1 hPa WSW 14.8 km/h 20.9 km/h 96% 0.0 mm
11:45 4.4 °C 4.0 °C 994.1 hPa SW 16.6 km/h 20.9 km/h 96% 0.0 mm
11:50 4.4 °C 4.0 °C 994.1 hPa SSW 16.3 km/h 24.8 km/h 96% 0.0 mm
11:55 4.6 °C 4.0 °C 994.1 hPa SSW 11.1 km/h 24.8 km/h 95% 0.0 mm
12:01 4.7 °C 4.0 °C 994.1 hPa WSW 13.7 km/h 21.9 km/h 95% 0.0 mm
12:03 4.7 °C 4.0 °C 994.1 hPa SW 17.7 km/h 24.8 km/h 95% 0.0 mm
12:04 4.7 °C 4.0 °C 994.1 hPa SW 12.2 km/h 24.8 km/h 95% 0.0 mm
12:08 4.7 °C 4.0 °C 994.1 hPa SSW 13.7 km/h 24.8 km/h 95% 0.0 mm
12:13 4.7 °C 4.0 °C 994.1 hPa SSW 16.6 km/h 20.1 km/h 95% 0.0 mm
12:18 4.7 °C 4.0 °C 994.1 hPa SW 15.1 km/h 20.1 km/h 95% 0.0 mm
12:23 4.7 °C 4.0 °C 994.1 hPa WSW 18.0 km/h 21.9 km/h 95% 0.0 mm
12:26 4.7 °C 4.0 °C 993.1 hPa SW 11.9 km/h 21.9 km/h 95% 0.0 mm
12:31 4.7 °C 4.0 °C 993.1 hPa WSW 10.5 km/h 21.9 km/h 95% 0.0 mm
12:36 4.6 °C 4.0 °C 993.1 hPa WSW 13.7 km/h 17.7 km/h 95% 0.0 mm
12:40 4.6 °C 4.0 °C 993.1 hPa West 9.7 km/h 16.9 km/h 95% 0.0 mm
12:43 4.6 °C 4.0 °C 993.1 hPa SSW 7.9 km/h 16.9 km/h 95% 0.0 mm
12:48 4.6 °C 4.0 °C 993.1 hPa SW 12.2 km/h 16.9 km/h 95% 0.0 mm
12:53 4.6 °C 4.0 °C 993.1 hPa WSW 13.0 km/h 17.7 km/h 95% 0.0 mm
12:58 4.7 °C 4.0 °C 993.1 hPa SW 13.0 km/h 24.8 km/h 95% 0.0 mm
13:03 4.8 °C 4.0 °C 993.1 hPa SW 12.6 km/h 24.8 km/h 95% 0.0 mm
13:08 4.8 °C 4.0 °C 993.1 hPa SW 16.3 km/h 23.3 km/h 95% 0.0 mm
13:09 4.8 °C 4.0 °C 993.1 hPa SSW 13.0 km/h 23.3 km/h 95% 0.0 mm
13:14 4.8 °C 4.0 °C 992.1 hPa SSW 13.7 km/h 20.1 km/h 95% 0.0 mm
13:19 4.8 °C 4.0 °C 992.1 hPa WSW 15.4 km/h 20.1 km/h 95% 0.0 mm
13:24 4.8 °C 4.0 °C 992.1 hPa WSW 11.6 km/h 19.5 km/h 95% 0.0 mm
13:29 0.0 °C 4.0 °C 993.1 hPa SW 13.7 km/h 18.0 km/h 0% 0.0 mm
13:34 0.0 °C 4.0 °C 993.1 hPa WSW 13.0 km/h 20.6 km/h 0% 0.0 mm
13:39 0.0 °C 4.0 °C 0.0 hPa SW 10.5 km/h 10.5 km/h 0% 0.0 mm
13:44 4.9 °C 4.0 °C 993.1 hPa WSW 23.8 km/h 27.7 km/h 94% 0.0 mm
13:49 5.0 °C 4.0 °C 993.1 hPa WSW 19.1 km/h 27.7 km/h 94% 0.0 mm
13:54 5.0 °C 5.0 °C 993.1 hPa WSW 14.3 km/h 25.6 km/h 95% 0.0 mm
13:59 5.0 °C 5.0 °C 992.1 hPa SSW 16.6 km/h 25.6 km/h 95% 0.0 mm
14:03 5.1 °C 5.0 °C 992.1 hPa WSW 16.9 km/h 21.2 km/h 95% 0.0 mm
14:04 5.1 °C 5.0 °C 992.1 hPa WSW 20.1 km/h 23.0 km/h 95% 0.0 mm
14:09 5.1 °C 5.0 °C 992.1 hPa WSW 23.8 km/h 29.1 km/h 95% 0.0 mm
14:14 5.1 °C 5.0 °C 992.1 hPa SW 20.9 km/h 30.6 km/h 95% 0.3 mm
14:19 5.1 °C 5.0 °C 992.1 hPa SW 14.0 km/h 30.6 km/h 95% 0.3 mm
14:24 5.1 °C 5.0 °C 992.1 hPa SW 10.5 km/h 25.9 km/h 95% 0.3 mm
14:29 5.1 °C 5.0 °C 992.1 hPa SSW 24.8 km/h 24.8 km/h 95% 0.3 mm
14:30 5.1 °C 5.0 °C 992.1 hPa SW 16.3 km/h 24.8 km/h 95% 0.3 mm
14:35 5.0 °C 5.0 °C 992.1 hPa WSW 16.9 km/h 27.7 km/h 96% 0.3 mm
14:40 5.0 °C 5.0 °C 992.1 hPa WSW 13.0 km/h 27.7 km/h 96% 0.5 mm
14:45 5.0 °C 5.0 °C 992.1 hPa SW 15.4 km/h 23.8 km/h 96% 0.5 mm
14:50 5.0 °C 5.0 °C 992.1 hPa SW 16.3 km/h 22.7 km/h 96% 0.5 mm
14:52 5.0 °C 5.0 °C 992.1 hPa SSW 9.3 km/h 22.7 km/h 96% 0.5 mm
14:57 4.8 °C 4.0 °C 991.1 hPa SW 9.7 km/h 22.7 km/h 97% 0.5 mm
15:02 4.8 °C 4.0 °C 991.1 hPa SSW 12.6 km/h 20.9 km/h 97% 0.5 mm
15:07 4.8 °C 4.0 °C 991.1 hPa SW 12.6 km/h 16.9 km/h 97% 0.5 mm
15:12 4.8 °C 4.0 °C 991.1 hPa SW 8.7 km/h 16.6 km/h 97% 0.5 mm
15:17 4.8 °C 4.0 °C 991.1 hPa SSW 10.5 km/h 16.6 km/h 97% 0.3 mm
15:22 4.8 °C 5.0 °C 991.1 hPa SW 12.2 km/h 16.9 km/h 98% 0.3 mm
15:27 4.8 °C 5.0 °C 991.1 hPa SW 13.0 km/h 20.1 km/h 98% 0.3 mm
15:32 4.8 °C 5.0 °C 991.1 hPa SSW 16.9 km/h 20.9 km/h 98% 0.5 mm
15:37 4.8 °C 5.0 °C 991.1 hPa SSW 19.5 km/h 20.9 km/h 98% 1.3 mm
15:43 4.8 °C 5.0 °C 990.1 hPa SW 12.2 km/h 20.9 km/h 98% 0.8 mm
15:48 4.8 °C 5.0 °C 990.1 hPa WSW 14.0 km/h 19.8 km/h 98% 0.8 mm
15:53 4.6 °C 5.0 °C 990.1 hPa SW 15.8 km/h 19.5 km/h 98% 0.8 mm
15:58 4.6 °C 5.0 °C 990.1 hPa SSW 13.7 km/h 20.6 km/h 98% 0.8 mm
16:03 4.6 °C 5.0 °C 990.1 hPa SW 19.1 km/h 20.6 km/h 98% 0.8 mm
16:04 4.4 °C 4.0 °C 990.1 hPa SW 17.7 km/h 21.2 km/h 98% 0.8 mm
16:05 4.4 °C 4.0 °C 990.1 hPa SSW 13.7 km/h 21.2 km/h 98% 0.8 mm
16:10 4.3 °C 4.0 °C 991.1 hPa SSW 19.5 km/h 23.8 km/h 98% 0.8 mm
16:15 4.2 °C 4.0 °C 991.1 hPa WSW 19.8 km/h 24.8 km/h 98% 0.8 mm
16:19 4.2 °C 4.0 °C 991.1 hPa SSW 12.6 km/h 31.4 km/h 98% 0.8 mm
16:21 4.2 °C 4.0 °C 991.1 hPa South 13.7 km/h 31.4 km/h 98% 0.8 mm
16:26 4.0 °C 4.0 °C 991.1 hPa SW 11.9 km/h 21.2 km/h 98% 0.8 mm
16:31 4.0 °C 4.0 °C 991.1 hPa SW 12.2 km/h 19.5 km/h 98% 0.5 mm
16:36 4.0 °C 4.0 °C 991.1 hPa SW 15.8 km/h 23.8 km/h 98% 0.3 mm
16:41 4.0 °C 4.0 °C 991.1 hPa WSW 16.3 km/h 23.8 km/h 98% 0.0 mm
16:46 4.0 °C 4.0 °C 991.1 hPa SSW 16.9 km/h 19.8 km/h 98% 0.0 mm
16:51 4.0 °C 4.0 °C 991.1 hPa SW 14.0 km/h 21.6 km/h 98% 0.0 mm
16:56 4.0 °C 4.0 °C 990.1 hPa SSW 12.6 km/h 21.6 km/h 98% 0.0 mm
17:01 4.0 °C 4.0 °C 990.1 hPa SW 10.5 km/h 21.2 km/h 98% 0.0 mm
17:06 4.0 °C 4.0 °C 990.1 hPa SSW 16.6 km/h 24.8 km/h 98% 0.0 mm
17:09 4.0 °C 4.0 °C 990.1 hPa WSW 12.6 km/h 24.8 km/h 98% 0.0 mm
17:12 4.0 °C 4.0 °C 990.1 hPa SW 19.8 km/h 24.8 km/h 98% 0.0 mm
17:17 4.0 °C 4.0 °C 990.1 hPa WSW 17.7 km/h 22.7 km/h 98% 0.3 mm
17:22 4.1 °C 4.0 °C 990.1 hPa WSW 20.6 km/h 24.5 km/h 98% 1.0 mm
17:27 3.8 °C 4.0 °C 991.1 hPa West 17.2 km/h 24.8 km/h 98% 1.5 mm
17:32 3.5 °C 4.0 °C 991.1 hPa WSW 16.9 km/h 28.0 km/h 98% 2.3 mm
17:33 3.4 °C 3.0 °C 991.1 hPa West 16.6 km/h 28.0 km/h 98% 2.5 mm
17:37 3.3 °C 3.0 °C 991.1 hPa WSW 13.0 km/h 28.0 km/h 98% 2.8 mm
17:42 3.3 °C 3.0 °C 990.1 hPa SSW 9.0 km/h 23.8 km/h 98% 3.8 mm
17:47 3.0 °C 3.0 °C 990.1 hPa SW 6.4 km/h 20.1 km/h 98% 4.1 mm
17:52 3.0 °C 3.0 °C 990.1 hPa South 7.6 km/h 14.0 km/h 98% 4.1 mm
17:57 2.9 °C 3.0 °C 989.1 hPa SSW 5.0 km/h 12.2 km/h 98% 4.1 mm
18:00 2.9 °C 3.0 °C 989.1 hPa SSW 6.9 km/h 11.6 km/h 98% 4.1 mm
18:05 2.8 °C 3.0 °C 989.1 hPa South 7.9 km/h 11.6 km/h 98% 4.1 mm
18:10 2.7 °C 3.0 °C 989.1 hPa SSW 6.1 km/h 11.9 km/h 98% 4.1 mm
18:15 2.6 °C 3.0 °C 989.1 hPa SSW 6.1 km/h 11.9 km/h 98% 3.8 mm
18:20 2.6 °C 3.0 °C 989.1 hPa SSW 9.7 km/h 12.6 km/h 98% 3.3 mm
18:22 2.6 °C 3.0 °C 989.1 hPa SW 12.6 km/h 12.6 km/h 98% 3.0 mm
18:27 2.6 °C 3.0 °C 990.1 hPa Calm   12.6 km/h 98% 2.5 mm
18:28 2.6 °C 3.0 °C 990.1 hPa Calm   12.6 km/h 98% 2.5 mm
18:32 2.6 °C 3.0 °C 990.1 hPa SSW 11.6 km/h 11.9 km/h 98% 1.8 mm
18:37 2.6 °C 3.0 °C 990.1 hPa SSW 10.5 km/h 14.0 km/h 98% 1.3 mm
18:38 2.6 °C 3.0 °C 990.1 hPa SSW 10.1 km/h 14.0 km/h 98% 1.3 mm
18:43 2.6 °C 3.0 °C 989.1 hPa SSW 5.8 km/h 14.0 km/h 98% 0.3 mm
18:48 2.5 °C 3.0 °C 989.1 hPa SSW 6.1 km/h 14.0 km/h 98% 0.0 mm
18:53 2.5 °C 3.0 °C 989.1 hPa South 9.0 km/h 14.0 km/h 98% 0.3 mm
18:58 2.5 °C 3.0 °C 990.1 hPa SSW 9.3 km/h 14.0 km/h 98% 0.3 mm
19:03 2.5 °C 3.0 °C 990.1 hPa SSW 6.9 km/h 14.0 km/h 98% 0.3 mm
19:08 2.6 °C 3.0 °C 990.1 hPa South 7.9 km/h 14.0 km/h 98% 0.3 mm
19:13 2.6 °C 3.0 °C 990.1 hPa South 11.9 km/h 14.0 km/h 98% 0.3 mm
19:14 2.6 °C 3.0 °C 990.1 hPa SSW 12.6 km/h 14.0 km/h 98% 0.3 mm
19:18 2.7 °C 3.0 °C 990.1 hPa SSW 10.1 km/h 16.3 km/h 98% 0.3 mm
19:20 2.7 °C 3.0 °C 990.1 hPa SW 12.6 km/h 16.3 km/h 98% 0.3 mm
19:25 2.8 °C 3.0 °C 990.1 hPa SSW 10.1 km/h 16.3 km/h 98% 0.3 mm
19:26 2.8 °C 3.0 °C 989.1 hPa SSW 8.7 km/h 14.0 km/h 98% 0.3 mm
19:31 2.9 °C 3.0 °C 989.1 hPa SW 9.3 km/h 12.6 km/h 98% 0.3 mm
19:36 2.9 °C 3.0 °C 989.1 hPa WSW 10.8 km/h 12.6 km/h 98% 0.3 mm
19:41 3.0 °C 3.0 °C 990.1 hPa SW 7.6 km/h 16.3 km/h 98% 0.3 mm
19:46 3.0 °C 3.0 °C 990.1 hPa SW 11.9 km/h 17.2 km/h 98% 0.3 mm
19:51 3.0 °C 3.0 °C 990.1 hPa SSW 9.3 km/h 17.2 km/h 98% 0.3 mm
19:53 3.0 °C 3.0 °C 990.1 hPa SSW 10.5 km/h 17.2 km/h 98% 0.0 mm
19:58 2.9 °C 3.0 °C 989.1 hPa SW 11.9 km/h 13.7 km/h 98% 0.0 mm
20:03 2.9 °C 3.0 °C 989.1 hPa SW 6.4 km/h 14.0 km/h 98% 0.0 mm
20:08 2.9 °C 3.0 °C 989.1 hPa SW 9.0 km/h 14.0 km/h 98% 0.0 mm
20:13 2.9 °C 3.0 °C 989.1 hPa SSW 10.1 km/h 12.6 km/h 98% 0.0 mm
20:18 2.9 °C 3.0 °C 989.1 hPa South 5.0 km/h 13.7 km/h 98% 0.0 mm
20:19 2.9 °C 3.0 °C 989.1 hPa SW 8.7 km/h 13.7 km/h 98% 0.0 mm
20:23 2.9 °C 3.0 °C 989.1 hPa SSW 6.4 km/h 13.7 km/h 98% 0.0 mm
20:25 2.8 °C 3.0 °C 989.1 hPa SSW 7.9 km/h 12.6 km/h 98% 0.0 mm
20:28 2.8 °C 3.0 °C 989.1 hPa SSW 12.6 km/h 13.7 km/h 98% 0.0 mm
20:33 2.8 °C 3.0 °C 989.1 hPa SSW 15.8 km/h 20.9 km/h 98% 0.0 mm
20:38 2.8 °C 3.0 °C 989.1 hPa SSW 20.9 km/h 20.9 km/h 98% 0.0 mm
20:43 2.8 °C 3.0 °C 989.1 hPa WSW 11.9 km/h 20.9 km/h 98% 0.0 mm
20:48 2.8 °C 3.0 °C 989.1 hPa SSW 9.7 km/h 20.9 km/h 98% 0.0 mm
20:53 2.7 °C 3.0 °C 989.1 hPa SW 10.1 km/h 15.4 km/h 98% 0.0 mm
20:58 2.7 °C 3.0 °C 989.1 hPa SW 10.5 km/h 14.0 km/h 98% 0.0 mm
21:03 2.6 °C 3.0 °C 989.1 hPa SSW 5.0 km/h 12.6 km/h 98% 0.0 mm
21:08 2.5 °C 3.0 °C 989.1 hPa SW 6.4 km/h 14.0 km/h 98% 0.0 mm
21:13 2.5 °C 3.0 °C 989.1 hPa Calm   14.0 km/h 98% 0.0 mm
21:18 2.4 °C 3.0 °C 989.1 hPa SW 2.1 km/h 10.1 km/h 98% 0.0 mm
21:23 2.3 °C 3.0 °C 989.1 hPa SSW 4.0 km/h 9.7 km/h 98% 0.0 mm
21:28 2.3 °C 3.0 °C 989.1 hPa Calm   7.9 km/h 98% 0.0 mm
21:34 2.2 °C 2.0 °C 989.1 hPa Calm   6.4 km/h 98% 0.0 mm
21:39 2.1 °C 2.0 °C 989.1 hPa Calm   6.4 km/h 98% 0.0 mm
21:44 2.1 °C 2.0 °C 989.1 hPa Calm   5.8 km/h 98% 0.0 mm
21:49 2.0 °C 2.0 °C 989.1 hPa SW 5.0 km/h 5.8 km/h 98% 0.0 mm
21:54 2.0 °C 2.0 °C 989.1 hPa Calm   5.0 km/h 98% 0.0 mm
21:59 1.9 °C 2.0 °C 989.1 hPa Calm   4.7 km/h 98% 0.0 mm
22:04 1.9 °C 2.0 °C 989.1 hPa Calm   4.3 km/h 98% 0.0 mm
22:09 1.9 °C 2.0 °C 989.1 hPa WSW 4.7 km/h 6.4 km/h 98% 0.0 mm
22:10 1.9 °C 2.0 °C 989.1 hPa WSW 4.3 km/h 6.4 km/h 98% 0.0 mm
22:15 1.8 °C 2.0 °C 989.1 hPa Calm   6.4 km/h 98% 0.0 mm
22:20 1.7 °C 2.0 °C 989.1 hPa Calm   6.1 km/h 98% 0.0 mm
22:22 1.6 °C 2.0 °C 989.1 hPa Calm   6.4 km/h 98% 0.0 mm
22:25 1.5 °C 2.0 °C 989.1 hPa West 6.4 km/h 6.4 km/h 98% 0.0 mm
22:30 1.4 °C 1.0 °C 989.1 hPa Calm   6.9 km/h 98% 0.0 mm
22:35 1.3 °C 1.0 °C 989.1 hPa Calm   6.9 km/h 98% 0.0 mm
22:40 1.1 °C 1.0 °C 989.1 hPa Calm     98% 0.0 mm
22:45 1.1 °C 1.0 °C 989.1 hPa Calm     98% 0.0 mm
22:48 1.1 °C 1.0 °C 989.1 hPa Calm     98% 0.0 mm
22:53 1.1 °C 1.0 °C 989.1 hPa Calm     98% 0.0 mm
22:58 1.1 °C 1.0 °C 990.1 hPa Calm     98% 0.0 mm
23:03 1.1 °C 1.0 °C 990.1 hPa South 1.4 km/h 1.8 km/h 98% 0.0 mm
23:09 1.0 °C 1.0 °C 990.1 hPa Calm   5.0 km/h 98% 0.0 mm
23:14 1.0 °C 1.0 °C 989.1 hPa SW 3.2 km/h 5.0 km/h 98% 0.0 mm
23:19 1.1 °C 1.0 °C 989.1 hPa Calm   5.0 km/h 98% 0.0 mm
23:24 1.1 °C 1.0 °C 989.1 hPa Calm     98% 0.0 mm
23:29 1.1 °C 1.0 °C 989.1 hPa Calm     98% 0.0 mm
23:34 1.0 °C 1.0 °C 989.1 hPa Calm   1.8 km/h 98% 0.0 mm
23:39 1.1 °C 1.0 °C 989.1 hPa Calm   1.8 km/h 98% 0.0 mm
23:44 1.1 °C 1.0 °C 989.1 hPa Calm     98% 0.0 mm
23:49 1.1 °C 1.0 °C 989.1 hPa Calm     98% 0.0 mm
23:54 1.1 °C 1.0 °C 989.1 hPa SSW 3.5 km/h 4.3 km/h 98% 0.0 mm
23:59 1.1 °C 1.0 °C 989.1 hPa SSW 3.2 km/h 5.0 km/h 98% 0.0 mm
Données Historique de Météo Turbie

Mise a jour : 24/05/2018 15:58:13
Généré par Cumulus 1.9.4 (1099)